New Castle, VA

3:27 PM EDT on March 28, 2015 (GMT -0400)
Preston Park | | Change Station
CLOSE
Current Station
Personal Weather Station
Location: Roanoke, VA
Elevation: 1066 ft
Nearby Weather Stations

Elev 1066 ft 37.32 °N, 79.94 °W | Updated 4 minutes ago

Partly Cloudy
Partly Cloudy
36.5 °F
Feels Like 30 °F
N
9.4
Wind Variable Wind from WSW

Today
High -- | Low -- °F
--% Chance of Precip.
Yesterday
High -- | Low -- °F
Precip. -- in
7:12 AM 7:39 PM
Waxing Gibbous, 64% visible
Pressure 30.11 in
Visibility 10.0 miles
Clouds Few 6500 ft
Windchill 30 °F
Dew Point 10 °F
Humidity 32%
Rainfall 0.00 in
Snow Depth Not available.
UV 7 out of 12
Pollen 8.20 out of 12
Air Quality Not available.
Flu Activity Not available.
METAR KROA 281854Z 29007G16KT 10SM FEW065 01/M14 A3009 RMK AO2 PK WND 27027/1814 SLP195 T00111144

More Conditions Fewer Conditions

Pressure 30.11 in
Visibility 10.0 miles
Clouds Few 6500 ft
Windchill 30 °F
Dew Point 10 °F
Humidity 32%
Rainfall 0.00 in
Snow Depth Not available.
UV 7 out of 12
Pollen 8.20 out of 12
Air Quality Not available.
Flu Activity Not available.
METAR KROA 281854Z 29007G16KT 10SM FEW065 01/M14 A3009 RMK AO2 PK WND 27027/1814 SLP195 T00111144

More Conditions Fewer Conditions

10-Day Weather Forecast

Almanac

Astronomy

Mar. 28, 2015 Rise Set
Actual Time
Civil Twilight
Nautical Twilight
Astronomical Twilight
Moon
Length of Visible Light
Length of Day
Tomorrow will be .
, % of the Moon is Illuminated

Today's Extremes

State Highs State Lows

Community

WunderPhotos

Upload Photos

1,809,071 photos uploaded!

WunderBlogs® & News

Nearby

Air Quality

  Air Quality AQ Index Pollutant
Not available.

Snow Depth

Station Depth Elevation

Earthquake Activity

City Distance Mag. Time & Date
Minimum magnitude displayed is 2.5.

Coastal Water Temperatures

Place Temperature

Stations

Nearby Weather Stations

Station Location Temp. Windchill Dew Point Humidity Wind Precip. Elev Updated Type